Terminal Aerodrome Forecast
Issued by NWS Cleveland, OH

Home | Current Version | Previous Version | Graphics & Text | Print | Product List | Glossary On
Versions: 1 2 3 4 5 6 7 8 9 10 11 12 13 14 15 16 17 18 19 20 21 22 23 24
000
FTUS41 KCLE 191100
TAFYNG
TAF
KYNG 191120Z 1912/2012 14005KT 5SM -SHRA SCT012 OVC020
      TEMPO 1912/1915 3SM -SHRA BR OVC008
     FM191800 16010KT P6SM -SHRA VCTS BKN035CB OVC050
     FM200200 VRB03KT P6SM BKN035 OVC050
     FM200900 00000KT 3SM BR BKN030=

USA.gov is the U.S. government's official web portal to all federal, state and local government web resources and services.